sensor_id;sensor_type;location;lat;lon;timestamp;P1;durP1;ratioP1;P2;durP2;ratioP2
8819;SDS011;4446;50.876;4.736;2022-07-22T00:01:53;5.45;;;3.25;;
8819;SDS011;4446;50.876;4.736;2022-07-22T00:04:20;7.07;;;3.80;;
8819;SDS011;4446;50.876;4.736;2022-07-22T00:06:47;7.32;;;3.70;;
8819;SDS011;4446;50.876;4.736;2022-07-22T00:09:16;6.13;;;3.20;;
8819;SDS011;4446;50.876;4.736;2022-07-22T00:11:43;6.25;;;3.97;;
8819;SDS011;4446;50.876;4.736;2022-07-22T00:14:10;8.02;;;3.58;;
8819;SDS011;4446;50.876;4.736;2022-07-22T00:16:38;6.50;;;3.47;;
8819;SDS011;4446;50.876;4.736;2022-07-22T00:19:05;6.65;;;3.30;;
8819;SDS011;4446;50.876;4.736;2022-07-22T00:21:32;9.23;;;4.25;;
8819;SDS011;4446;50.876;4.736;2022-07-22T00:23:59;9.60;;;3.38;;
8819;SDS011;4446;50.876;4.736;2022-07-22T00:26:28;6.55;;;3.40;;
8819;SDS011;4446;50.876;4.736;2022-07-22T00:28:55;5.32;;;3.63;;
8819;SDS011;4446;50.876;4.736;2022-07-22T00:31:22;6.50;;;3.40;;
8819;SDS011;4446;50.876;4.736;2022-07-22T00:33:49;6.65;;;3.47;;
8819;SDS011;4446;50.876;4.736;2022-07-22T00:36:16;6.10;;;3.70;;
8819;SDS011;4446;50.876;4.736;2022-07-22T00:38:43;5.88;;;3.60;;
8819;SDS011;4446;50.876;4.736;2022-07-22T00:41:10;6.72;;;3.67;;
8819;SDS011;4446;50.876;4.736;2022-07-22T00:43:52;6.93;;;3.72;;
8819;SDS011;4446;50.876;4.736;2022-07-22T00:46:21;8.48;;;4.70;;
8819;SDS011;4446;50.876;4.736;2022-07-22T00:48:48;6.60;;;4.05;;
8819;SDS011;4446;50.876;4.736;2022-07-22T00:51:16;7.93;;;4.00;;
8819;SDS011;4446;50.876;4.736;2022-07-22T00:53:44;5.32;;;3.35;;
8819;SDS011;4446;50.876;4.736;2022-07-22T00:56:12;6.25;;;3.83;;
8819;SDS011;4446;50.876;4.736;2022-07-22T00:58:39;7.25;;;3.97;;
8819;SDS011;4446;50.876;4.736;2022-07-22T01:01:08;6.45;;;4.13;;
8819;SDS011;4446;50.876;4.736;2022-07-22T01:03:36;6.50;;;3.78;;
8819;SDS011;4446;50.876;4.736;2022-07-22T01:06:03;5.68;;;3.38;;
8819;SDS011;4446;50.876;4.736;2022-07-22T01:08:31;9.30;;;4.00;;
8819;SDS011;4446;50.876;4.736;2022-07-22T01:11:05;5.63;;;3.63;;
8819;SDS011;4446;50.876;4.736;2022-07-22T01:13:34;4.75;;;3.53;;
8819;SDS011;4446;50.876;4.736;2022-07-22T01:16:01;7.65;;;4.72;;
8819;SDS011;4446;50.876;4.736;2022-07-22T01:18:30;6.18;;;3.58;;
8819;SDS011;4446;50.876;4.736;2022-07-22T01:20:59;7.95;;;3.78;;
8819;SDS011;4446;50.876;4.736;2022-07-22T01:23:26;6.75;;;3.72;;
8819;SDS011;4446;50.876;4.736;2022-07-22T01:25:53;7.30;;;4.00;;
8819;SDS011;4446;50.876;4.736;2022-07-22T01:28:20;9.88;;;4.32;;
8819;SDS011;4446;50.876;4.736;2022-07-22T01:30:47;7.45;;;3.85;;
8819;SDS011;4446;50.876;4.736;2022-07-22T01:33:15;8.90;;;4.28;;
8819;SDS011;4446;50.876;4.736;2022-07-22T01:35:43;6.80;;;3.78;;
8819;SDS011;4446;50.876;4.736;2022-07-22T01:38:11;7.65;;;4.38;;
8819;SDS011;4446;50.876;4.736;2022-07-22T01:40:39;7.18;;;4.22;;
8819;SDS011;4446;50.876;4.736;2022-07-22T01:43:06;9.43;;;4.60;;
8819;SDS011;4446;50.876;4.736;2022-07-22T01:45:34;8.70;;;4.68;;
8819;SDS011;4446;50.876;4.736;2022-07-22T01:48:01;7.50;;;4.38;;
8819;SDS011;4446;50.876;4.736;2022-07-22T01:50:29;7.75;;;4.00;;
8819;SDS011;4446;50.876;4.736;2022-07-22T01:52:56;5.75;;;3.90;;
8819;SDS011;4446;50.876;4.736;2022-07-22T01:55:25;4.70;;;3.90;;
8819;SDS011;4446;50.876;4.736;2022-07-22T01:57:52;5.63;;;4.07;;
8819;SDS011;4446;50.876;4.736;2022-07-22T02:00:19;6.03;;;3.95;;
8819;SDS011;4446;50.876;4.736;2022-07-22T02:02:46;7.40;;;4.38;;
8819;SDS011;4446;50.876;4.736;2022-07-22T02:05:13;10.48;;;4.70;;
8819;SDS011;4446;50.876;4.736;2022-07-22T02:07:40;9.07;;;4.30;;
8819;SDS011;4446;50.876;4.736;2022-07-22T02:10:07;8.20;;;4.55;;
8819;SDS011;4446;50.876;4.736;2022-07-22T02:12:37;8.63;;;4.30;;
8819;SDS011;4446;50.876;4.736;2022-07-22T02:15:04;7.93;;;4.20;;
8819;SDS011;4446;50.876;4.736;2022-07-22T02:17:33;6.15;;;4.03;;
8819;SDS011;4446;50.876;4.736;2022-07-22T02:20:00;9.32;;;4.45;;
8819;SDS011;4446;50.876;4.736;2022-07-22T02:22:28;8.75;;;4.50;;
8819;SDS011;4446;50.876;4.736;2022-07-22T02:24:55;8.15;;;4.05;;
8819;SDS011;4446;50.876;4.736;2022-07-22T02:27:22;7.15;;;4.45;;
8819;SDS011;4446;50.876;4.736;2022-07-22T02:29:50;5.75;;;3.90;;
8819;SDS011;4446;50.876;4.736;2022-07-22T02:32:17;9.10;;;4.18;;
8819;SDS011;4446;50.876;4.736;2022-07-22T02:34:44;7.88;;;3.95;;
8819;SDS011;4446;50.876;4.736;2022-07-22T02:37:14;7.20;;;4.15;;
8819;SDS011;4446;50.876;4.736;2022-07-22T02:39:41;6.93;;;4.72;;
8819;SDS011;4446;50.876;4.736;2022-07-22T02:42:08;7.95;;;4.20;;
8819;SDS011;4446;50.876;4.736;2022-07-22T02:44:35;8.80;;;4.72;;
8819;SDS011;4446;50.876;4.736;2022-07-22T02:47:04;8.23;;;4.28;;
8819;SDS011;4446;50.876;4.736;2022-07-22T02:49:31;6.78;;;4.55;;
8819;SDS011;4446;50.876;4.736;2022-07-22T02:51:58;8.07;;;4.10;;
8819;SDS011;4446;50.876;4.736;2022-07-22T02:54:25;8.90;;;4.82;;
8819;SDS011;4446;50.876;4.736;2022-07-22T02:56:52;6.90;;;5.05;;
8819;SDS011;4446;50.876;4.736;2022-07-22T02:59:19;9.43;;;4.60;;
8819;SDS011;4446;50.876;4.736;2022-07-22T03:01:46;9.30;;;4.75;;
8819;SDS011;4446;50.876;4.736;2022-07-22T03:04:15;9.52;;;5.60;;
8819;SDS011;4446;50.876;4.736;2022-07-22T03:06:42;8.27;;;4.35;;
8819;SDS011;4446;50.876;4.736;2022-07-22T03:09:09;12.13;;;5.70;;
8819;SDS011;4446;50.876;4.736;2022-07-22T03:11:36;9.00;;;4.95;;
8819;SDS011;4446;50.876;4.736;2022-07-22T03:14:03;8.68;;;5.10;;
8819;SDS011;4446;50.876;4.736;2022-07-22T03:16:30;7.32;;;5.22;;
8819;SDS011;4446;50.876;4.736;2022-07-22T03:18:57;7.60;;;4.93;;
8819;SDS011;4446;50.876;4.736;2022-07-22T03:21:25;8.35;;;5.20;;
8819;SDS011;4446;50.876;4.736;2022-07-22T03:23:53;12.80;;;5.78;;
8819;SDS011;4446;50.876;4.736;2022-07-22T03:26:20;9.68;;;4.85;;
8819;SDS011;4446;50.876;4.736;2022-07-22T03:28:47;9.02;;;5.45;;
8819;SDS011;4446;50.876;4.736;2022-07-22T03:31:14;7.20;;;4.95;;
8819;SDS011;4446;50.876;4.736;2022-07-22T03:33:41;8.73;;;5.95;;
8819;SDS011;4446;50.876;4.736;2022-07-22T03:36:08;9.10;;;5.18;;
8819;SDS011;4446;50.876;4.736;2022-07-22T03:38:37;7.47;;;4.60;;
8819;SDS011;4446;50.876;4.736;2022-07-22T03:41:04;9.23;;;5.10;;
8819;SDS011;4446;50.876;4.736;2022-07-22T03:43:31;8.52;;;5.35;;
8819;SDS011;4446;50.876;4.736;2022-07-22T03:45:58;8.75;;;5.18;;
8819;SDS011;4446;50.876;4.736;2022-07-22T03:48:25;10.00;;;5.30;;
8819;SDS011;4446;50.876;4.736;2022-07-22T03:50:52;7.97;;;4.82;;
8819;SDS011;4446;50.876;4.736;2022-07-22T03:53:19;6.35;;;4.72;;
8819;SDS011;4446;50.876;4.736;2022-07-22T03:55:48;11.30;;;5.72;;
8819;SDS011;4446;50.876;4.736;2022-07-22T03:58:15;12.73;;;5.57;;
8819;SDS011;4446;50.876;4.736;2022-07-22T04:00:43;7.68;;;5.35;;
8819;SDS011;4446;50.876;4.736;2022-07-22T04:03:10;8.02;;;5.43;;
8819;SDS011;4446;50.876;4.736;2022-07-22T04:05:37;8.73;;;5.60;;
8819;SDS011;4446;50.876;4.736;2022-07-22T04:08:04;8.50;;;5.55;;
8819;SDS011;4446;50.876;4.736;2022-07-22T04:10:31;7.43;;;5.30;;
8819;SDS011;4446;50.876;4.736;2022-07-22T04:13:00;7.50;;;5.07;;
8819;SDS011;4446;50.876;4.736;2022-07-22T04:15:27;10.23;;;5.90;;
8819;SDS011;4446;50.876;4.736;2022-07-22T04:17:54;9.48;;;5.75;;
8819;SDS011;4446;50.876;4.736;2022-07-22T04:20:21;8.10;;;5.15;;
8819;SDS011;4446;50.876;4.736;2022-07-22T04:22:48;6.80;;;5.50;;
8819;SDS011;4446;50.876;4.736;2022-07-22T04:25:15;6.90;;;5.10;;
8819;SDS011;4446;50.876;4.736;2022-07-22T04:27:42;7.55;;;5.45;;
8819;SDS011;4446;50.876;4.736;2022-07-22T04:30:11;10.07;;;5.60;;
8819;SDS011;4446;50.876;4.736;2022-07-22T04:32:38;7.82;;;5.20;;
8819;SDS011;4446;50.876;4.736;2022-07-22T04:35:05;7.85;;;5.47;;
8819;SDS011;4446;50.876;4.736;2022-07-22T04:37:33;9.90;;;6.30;;
8819;SDS011;4446;50.876;4.736;2022-07-22T04:40:00;11.98;;;6.85;;
8819;SDS011;4446;50.876;4.736;2022-07-22T04:42:27;11.93;;;6.80;;
8819;SDS011;4446;50.876;4.736;2022-07-22T04:44:54;8.98;;;5.90;;
8819;SDS011;4446;50.876;4.736;2022-07-22T04:47:22;11.52;;;6.38;;
8819;SDS011;4446;50.876;4.736;2022-07-22T04:49:49;13.52;;;6.38;;
8819;SDS011;4446;50.876;4.736;2022-07-22T04:52:16;11.60;;;6.80;;
8819;SDS011;4446;50.876;4.736;2022-07-22T04:54:43;11.32;;;6.72;;
8819;SDS011;4446;50.876;4.736;2022-07-22T04:57:11;9.52;;;6.50;;
8819;SDS011;4446;50.876;4.736;2022-07-22T04:59:38;12.90;;;6.82;;
8819;SDS011;4446;50.876;4.736;2022-07-22T05:02:05;12.00;;;7.30;;
8819;SDS011;4446;50.876;4.736;2022-07-22T05:04:34;13.48;;;8.75;;
8819;SDS011;4446;50.876;4.736;2022-07-22T05:07:01;17.80;;;8.57;;
8819;SDS011;4446;50.876;4.736;2022-07-22T05:09:28;15.77;;;8.85;;
8819;SDS011;4446;50.876;4.736;2022-07-22T05:11:55;11.35;;;7.63;;
8819;SDS011;4446;50.876;4.736;2022-07-22T05:14:22;14.30;;;7.50;;
8819;SDS011;4446;50.876;4.736;2022-07-22T05:16:49;13.38;;;7.68;;
8819;SDS011;4446;50.876;4.736;2022-07-22T05:19:16;12.02;;;8.15;;
8819;SDS011;4446;50.876;4.736;2022-07-22T05:21:44;15.85;;;9.50;;
8819;SDS011;4446;50.876;4.736;2022-07-22T05:24:12;14.27;;;9.27;;
8819;SDS011;4446;50.876;4.736;2022-07-22T05:26:39;17.88;;;9.05;;
8819;SDS011;4446;50.876;4.736;2022-07-22T05:29:06;17.35;;;8.63;;
8819;SDS011;4446;50.876;4.736;2022-07-22T05:31:33;18.25;;;9.73;;
8819;SDS011;4446;50.876;4.736;2022-07-22T05:34:00;16.70;;;9.75;;
8819;SDS011;4446;50.876;4.736;2022-07-22T05:36:28;15.18;;;10.00;;
8819;SDS011;4446;50.876;4.736;2022-07-22T05:38:56;16.75;;;9.57;;
8819;SDS011;4446;50.876;4.736;2022-07-22T05:41:23;19.05;;;10.23;;
8819;SDS011;4446;50.876;4.736;2022-07-22T05:43:50;16.35;;;9.90;;
8819;SDS011;4446;50.876;4.736;2022-07-22T05:46:17;16.42;;;10.70;;
8819;SDS011;4446;50.876;4.736;2022-07-22T05:48:44;17.10;;;9.20;;
8819;SDS011;4446;50.876;4.736;2022-07-22T05:51:11;16.65;;;9.00;;
8819;SDS011;4446;50.876;4.736;2022-07-22T05:53:39;13.98;;;8.60;;
8819;SDS011;4446;50.876;4.736;2022-07-22T05:56:09;12.43;;;8.15;;
8819;SDS011;4446;50.876;4.736;2022-07-22T05:58:37;16.55;;;9.00;;
8819;SDS011;4446;50.876;4.736;2022-07-22T06:01:04;16.23;;;9.23;;
8819;SDS011;4446;50.876;4.736;2022-07-22T06:03:31;12.18;;;8.40;;
8819;SDS011;4446;50.876;4.736;2022-07-22T06:05:58;13.38;;;8.32;;
8819;SDS011;4446;50.876;4.736;2022-07-22T06:08:27;14.02;;;8.07;;
8819;SDS011;4446;50.876;4.736;2022-07-22T06:10:54;14.55;;;7.28;;
8819;SDS011;4446;50.876;4.736;2022-07-22T06:13:24;10.50;;;6.70;;
8819;SDS011;4446;50.876;4.736;2022-07-22T06:15:52;12.65;;;6.97;;
8819;SDS011;4446;50.876;4.736;2022-07-22T06:18:19;9.68;;;6.28;;
8819;SDS011;4446;50.876;4.736;2022-07-22T06:20:46;12.00;;;6.95;;
8819;SDS011;4446;50.876;4.736;2022-07-22T06:23:14;10.07;;;5.93;;
8819;SDS011;4446;50.876;4.736;2022-07-22T06:25:41;12.07;;;6.43;;
8819;SDS011;4446;50.876;4.736;2022-07-22T06:28:08;11.23;;;6.40;;
8819;SDS011;4446;50.876;4.736;2022-07-22T06:30:36;10.75;;;5.80;;
8819;SDS011;4446;50.876;4.736;2022-07-22T06:33:04;8.80;;;6.03;;
8819;SDS011;4446;50.876;4.736;2022-07-22T06:35:31;9.15;;;5.80;;
8819;SDS011;4446;50.876;4.736;2022-07-22T06:37:58;9.73;;;6.10;;
8819;SDS011;4446;50.876;4.736;2022-07-22T06:40:25;9.73;;;5.53;;
8819;SDS011;4446;50.876;4.736;2022-07-22T06:42:52;8.27;;;5.10;;
8819;SDS011;4446;50.876;4.736;2022-07-22T06:45:19;7.03;;;5.57;;
8819;SDS011;4446;50.876;4.736;2022-07-22T06:47:47;7.93;;;5.97;;
8819;SDS011;4446;50.876;4.736;2022-07-22T06:50:15;6.63;;;5.00;;
8819;SDS011;4446;50.876;4.736;2022-07-22T06:52:41;7.82;;;5.22;;
8819;SDS011;4446;50.876;4.736;2022-07-22T06:55:11;5.35;;;4.85;;
8819;SDS011;4446;50.876;4.736;2022-07-22T06:57:38;6.97;;;4.70;;
8819;SDS011;4446;50.876;4.736;2022-07-22T07:00:06;7.38;;;5.60;;
8819;SDS011;4446;50.876;4.736;2022-07-22T07:02:34;6.65;;;5.00;;
8819;SDS011;4446;50.876;4.736;2022-07-22T07:05:03;7.13;;;4.80;;
8819;SDS011;4446;50.876;4.736;2022-07-22T07:07:30;6.35;;;4.95;;
8819;SDS011;4446;50.876;4.736;2022-07-22T07:09:57;5.95;;;4.97;;
8819;SDS011;4446;50.876;4.736;2022-07-22T07:12:24;5.55;;;4.30;;
8819;SDS011;4446;50.876;4.736;2022-07-22T07:14:51;7.60;;;3.90;;
8819;SDS011;4446;50.876;4.736;2022-07-22T07:17:18;4.40;;;3.80;;
8819;SDS011;4446;50.876;4.736;2022-07-22T07:19:45;4.70;;;3.92;;
8819;SDS011;4446;50.876;4.736;2022-07-22T07:22:14;4.80;;;4.28;;
8819;SDS011;4446;50.876;4.736;2022-07-22T07:24:41;10.85;;;4.50;;
8819;SDS011;4446;50.876;4.736;2022-07-22T07:27:08;5.97;;;3.67;;
8819;SDS011;4446;50.876;4.736;2022-07-22T07:29:35;5.63;;;3.40;;
8819;SDS011;4446;50.876;4.736;2022-07-22T07:32:02;5.82;;;3.85;;
8819;SDS011;4446;50.876;4.736;2022-07-22T07:34:30;5.70;;;3.70;;
8819;SDS011;4446;50.876;4.736;2022-07-22T07:36:57;5.45;;;3.75;;
8819;SDS011;4446;50.876;4.736;2022-07-22T07:39:25;5.90;;;3.72;;
8819;SDS011;4446;50.876;4.736;2022-07-22T07:41:53;6.55;;;3.67;;
8819;SDS011;4446;50.876;4.736;2022-07-22T07:44:20;7.68;;;4.20;;
8819;SDS011;4446;50.876;4.736;2022-07-22T07:46:46;6.13;;;4.03;;
8819;SDS011;4446;50.876;4.736;2022-07-22T07:49:13;4.90;;;3.90;;
8819;SDS011;4446;50.876;4.736;2022-07-22T07:51:41;5.13;;;3.63;;
8819;SDS011;4446;50.876;4.736;2022-07-22T07:54:08;4.22;;;2.88;;
8819;SDS011;4446;50.876;4.736;2022-07-22T07:56:36;4.78;;;3.13;;
8819;SDS011;4446;50.876;4.736;2022-07-22T07:59:03;4.03;;;3.17;;
8819;SDS011;4446;50.876;4.736;2022-07-22T08:01:30;4.97;;;3.72;;
8819;SDS011;4446;50.876;4.736;2022-07-22T08:03:58;6.68;;;3.65;;
8819;SDS011;4446;50.876;4.736;2022-07-22T08:06:25;4.80;;;3.72;;
8819;SDS011;4446;50.876;4.736;2022-07-22T08:08:52;5.60;;;3.38;;
8819;SDS011;4446;50.876;4.736;2022-07-22T08:11:19;5.60;;;3.60;;
8819;SDS011;4446;50.876;4.736;2022-07-22T08:13:48;4.78;;;3.30;;
8819;SDS011;4446;50.876;4.736;2022-07-22T08:16:16;5.63;;;3.25;;
8819;SDS011;4446;50.876;4.736;2022-07-22T08:18:43;5.15;;;3.45;;
8819;SDS011;4446;50.876;4.736;2022-07-22T08:21:10;4.85;;;3.15;;
8819;SDS011;4446;50.876;4.736;2022-07-22T08:23:37;4.22;;;3.08;;
8819;SDS011;4446;50.876;4.736;2022-07-22T08:26:04;4.32;;;2.88;;
8819;SDS011;4446;50.876;4.736;2022-07-22T08:28:31;3.25;;;2.58;;
8819;SDS011;4446;50.876;4.736;2022-07-22T08:31:00;3.80;;;2.72;;
8819;SDS011;4446;50.876;4.736;2022-07-22T08:33:27;3.22;;;2.50;;
8819;SDS011;4446;50.876;4.736;2022-07-22T08:35:54;3.45;;;2.70;;
8819;SDS011;4446;50.876;4.736;2022-07-22T08:38:21;2.97;;;2.67;;
8819;SDS011;4446;50.876;4.736;2022-07-22T08:40:48;5.10;;;2.78;;
8819;SDS011;4446;50.876;4.736;2022-07-22T08:43:15;5.85;;;2.85;;
8819;SDS011;4446;50.876;4.736;2022-07-22T08:45:42;3.75;;;3.08;;
8819;SDS011;4446;50.876;4.736;2022-07-22T08:48:10;4.00;;;2.90;;
8819;SDS011;4446;50.876;4.736;2022-07-22T08:50:38;4.30;;;3.33;;
8819;SDS011;4446;50.876;4.736;2022-07-22T08:53:07;5.97;;;3.42;;
8819;SDS011;4446;50.876;4.736;2022-07-22T08:55:39;4.32;;;3.35;;
8819;SDS011;4446;50.876;4.736;2022-07-22T08:58:07;4.57;;;3.28;;
8819;SDS011;4446;50.876;4.736;2022-07-22T09:00:34;4.60;;;3.50;;
8819;SDS011;4446;50.876;4.736;2022-07-22T09:03:01;3.58;;;3.28;;
8819;SDS011;4446;50.876;4.736;2022-07-22T09:05:45;4.47;;;3.22;;
8819;SDS011;4446;50.876;4.736;2022-07-22T09:08:12;3.83;;;3.25;;
8819;SDS011;4446;50.876;4.736;2022-07-22T09:10:40;4.25;;;3.28;;
8819;SDS011;4446;50.876;4.736;2022-07-22T09:13:08;5.32;;;3.75;;
8819;SDS011;4446;50.876;4.736;2022-07-22T09:15:37;4.28;;;3.47;;
8819;SDS011;4446;50.876;4.736;2022-07-22T09:18:07;3.90;;;3.45;;
8819;SDS011;4446;50.876;4.736;2022-07-22T09:20:36;3.83;;;3.47;;
8819;SDS011;4446;50.876;4.736;2022-07-22T09:23:08;4.10;;;3.63;;
8819;SDS011;4446;50.876;4.736;2022-07-22T09:25:38;5.63;;;3.88;;
8819;SDS011;4446;50.876;4.736;2022-07-22T09:28:11;4.20;;;3.80;;
8819;SDS011;4446;50.876;4.736;2022-07-22T09:30:40;4.78;;;3.90;;
8819;SDS011;4446;50.876;4.736;2022-07-22T09:33:12;4.30;;;3.47;;
8819;SDS011;4446;50.876;4.736;2022-07-22T09:35:41;4.30;;;3.55;;
8819;SDS011;4446;50.876;4.736;2022-07-22T09:38:09;3.85;;;3.55;;
8819;SDS011;4446;50.876;4.736;2022-07-22T09:40:37;3.70;;;3.35;;
8819;SDS011;4446;50.876;4.736;2022-07-22T09:43:06;3.58;;;3.28;;
8819;SDS011;4446;50.876;4.736;2022-07-22T09:45:36;3.47;;;3.17;;
8819;SDS011;4446;50.876;4.736;2022-07-22T09:48:11;3.85;;;3.20;;
8819;SDS011;4446;50.876;4.736;2022-07-22T09:50:38;4.10;;;3.08;;
8819;SDS011;4446;50.876;4.736;2022-07-22T09:53:06;3.85;;;2.95;;
8819;SDS011;4446;50.876;4.736;2022-07-22T09:55:33;3.70;;;3.30;;
8819;SDS011;4446;50.876;4.736;2022-07-22T09:58:03;4.45;;;3.50;;
8819;SDS011;4446;50.876;4.736;2022-07-22T10:00:30;3.55;;;3.20;;
8819;SDS011;4446;50.876;4.736;2022-07-22T10:02:58;2.90;;;2.70;;
8819;SDS011;4446;50.876;4.736;2022-07-22T10:05:27;3.40;;;2.90;;
8819;SDS011;4446;50.876;4.736;2022-07-22T10:07:55;3.38;;;3.08;;
8819;SDS011;4446;50.876;4.736;2022-07-22T10:10:25;3.83;;;3.53;;
8819;SDS011;4446;50.876;4.736;2022-07-22T10:12:54;3.45;;;2.80;;
8819;SDS011;4446;50.876;4.736;2022-07-22T10:15:22;4.70;;;2.90;;
8819;SDS011;4446;50.876;4.736;2022-07-22T10:17:51;3.38;;;3.08;;
8819;SDS011;4446;50.876;4.736;2022-07-22T10:20:19;3.40;;;2.90;;
8819;SDS011;4446;50.876;4.736;2022-07-22T10:22:49;4.55;;;2.90;;
8819;SDS011;4446;50.876;4.736;2022-07-22T10:25:18;3.95;;;3.03;;
8819;SDS011;4446;50.876;4.736;2022-07-22T10:27:48;4.20;;;3.28;;
8819;SDS011;4446;50.876;4.736;2022-07-22T10:30:17;4.43;;;3.20;;
8819;SDS011;4446;50.876;4.736;2022-07-22T10:32:48;3.30;;;3.00;;
8819;SDS011;4446;50.876;4.736;2022-07-22T10:35:32;4.97;;;2.80;;
8819;SDS011;4446;50.876;4.736;2022-07-22T10:38:02;3.50;;;2.90;;
8819;SDS011;4446;50.876;4.736;2022-07-22T10:40:32;4.35;;;2.97;;
8819;SDS011;4446;50.876;4.736;2022-07-22T10:43:14;3.60;;;2.88;;
8819;SDS011;4446;50.876;4.736;2022-07-22T10:45:47;4.03;;;3.10;;
8819;SDS011;4446;50.876;4.736;2022-07-22T10:48:16;5.95;;;3.30;;
8819;SDS011;4446;50.876;4.736;2022-07-22T10:50:49;4.32;;;3.22;;
8819;SDS011;4446;50.876;4.736;2022-07-22T10:53:21;4.93;;;3.17;;
8819;SDS011;4446;50.876;4.736;2022-07-22T10:56:06;6.03;;;3.40;;
8819;SDS011;4446;50.876;4.736;2022-07-22T11:01:33;3.53;;;2.90;;
8819;SDS011;4446;50.876;4.736;2022-07-22T11:04:10;4.00;;;3.17;;
8819;SDS011;4446;50.876;4.736;2022-07-22T11:06:39;4.72;;;3.25;;
8819;SDS011;4446;50.876;4.736;2022-07-22T11:09:07;3.50;;;3.00;;
8819;SDS011;4446;50.876;4.736;2022-07-22T11:11:37;4.30;;;2.95;;
8819;SDS011;4446;50.876;4.736;2022-07-22T11:14:24;3.25;;;2.95;;
8819;SDS011;4446;50.876;4.736;2022-07-22T11:16:54;4.30;;;3.20;;
8819;SDS011;4446;50.876;4.736;2022-07-22T11:19:23;3.85;;;3.05;;
8819;SDS011;4446;50.876;4.736;2022-07-22T11:21:52;3.85;;;3.47;;
8819;SDS011;4446;50.876;4.736;2022-07-22T11:24:20;4.05;;;3.35;;
8819;SDS011;4446;50.876;4.736;2022-07-22T11:26:48;4.78;;;3.50;;
8819;SDS011;4446;50.876;4.736;2022-07-22T11:29:17;4.10;;;3.60;;
8819;SDS011;4446;50.876;4.736;2022-07-22T11:31:53;4.78;;;3.40;;
8819;SDS011;4446;50.876;4.736;2022-07-22T11:34:20;4.15;;;2.92;;
8819;SDS011;4446;50.876;4.736;2022-07-22T11:36:49;3.67;;;3.33;;
8819;SDS011;4446;50.876;4.736;2022-07-22T11:39:18;4.25;;;3.42;;
8819;SDS011;4446;50.876;4.736;2022-07-22T11:41:47;3.75;;;3.40;;
8819;SDS011;4446;50.876;4.736;2022-07-22T11:44:17;4.05;;;3.60;;
8819;SDS011;4446;50.876;4.736;2022-07-22T11:46:45;5.80;;;3.58;;
8819;SDS011;4446;50.876;4.736;2022-07-22T11:49:14;4.15;;;3.50;;
8819;SDS011;4446;50.876;4.736;2022-07-22T11:51:42;4.35;;;3.70;;
8819;SDS011;4446;50.876;4.736;2022-07-22T11:54:09;4.88;;;3.88;;
8819;SDS011;4446;50.876;4.736;2022-07-22T11:56:37;4.63;;;4.20;;
8819;SDS011;4446;50.876;4.736;2022-07-22T11:59:05;3.70;;;3.40;;
8819;SDS011;4446;50.876;4.736;2022-07-22T12:01:34;4.45;;;3.30;;
8819;SDS011;4446;50.876;4.736;2022-07-22T12:04:04;4.25;;;3.88;;
8819;SDS011;4446;50.876;4.736;2022-07-22T12:06:33;4.63;;;3.90;;
8819;SDS011;4446;50.876;4.736;2022-07-22T12:09:04;3.88;;;3.47;;
8819;SDS011;4446;50.876;4.736;2022-07-22T12:11:34;3.80;;;3.50;;
8819;SDS011;4446;50.876;4.736;2022-07-22T12:14:06;4.20;;;3.80;;
8819;SDS011;4446;50.876;4.736;2022-07-22T12:16:35;3.97;;;3.67;;
8819;SDS011;4446;50.876;4.736;2022-07-22T12:19:03;3.85;;;3.45;;
8819;SDS011;4446;50.876;4.736;2022-07-22T12:21:34;5.30;;;3.78;;
8819;SDS011;4446;50.876;4.736;2022-07-22T12:24:03;3.67;;;3.33;;
8819;SDS011;4446;50.876;4.736;2022-07-22T12:26:42;4.97;;;3.70;;
8819;SDS011;4446;50.876;4.736;2022-07-22T12:29:19;4.22;;;3.58;;
8819;SDS011;4446;50.876;4.736;2022-07-22T12:31:48;4.15;;;3.75;;
8819;SDS011;4446;50.876;4.736;2022-07-22T12:34:17;4.05;;;3.65;;
8819;SDS011;4446;50.876;4.736;2022-07-22T12:36:57;4.22;;;3.60;;
8819;SDS011;4446;50.876;4.736;2022-07-22T12:39:27;3.92;;;3.58;;
8819;SDS011;4446;50.876;4.736;2022-07-22T12:41:55;3.88;;;3.58;;
8819;SDS011;4446;50.876;4.736;2022-07-22T12:44:22;3.72;;;3.40;;
8819;SDS011;4446;50.876;4.736;2022-07-22T12:46:52;3.88;;;3.03;;
8819;SDS011;4446;50.876;4.736;2022-07-22T12:49:21;4.43;;;3.60;;
8819;SDS011;4446;50.876;4.736;2022-07-22T12:54:37;3.65;;;3.30;;
8819;SDS011;4446;50.876;4.736;2022-07-22T12:57:07;4.93;;;3.35;;
8819;SDS011;4446;50.876;4.736;2022-07-22T12:59:36;3.65;;;3.35;;
8819;SDS011;4446;50.876;4.736;2022-07-22T13:02:03;3.60;;;3.30;;
8819;SDS011;4446;50.876;4.736;2022-07-22T13:04:30;3.60;;;3.20;;
8819;SDS011;4446;50.876;4.736;2022-07-22T13:06:57;4.13;;;3.70;;
8819;SDS011;4446;50.876;4.736;2022-07-22T13:09:25;4.80;;;3.38;;
8819;SDS011;4446;50.876;4.736;2022-07-22T13:11:53;3.35;;;3.05;;
8819;SDS011;4446;50.876;4.736;2022-07-22T13:14:20;3.45;;;3.15;;
8819;SDS011;4446;50.876;4.736;2022-07-22T13:16:47;3.72;;;3.42;;
8819;SDS011;4446;50.876;4.736;2022-07-22T13:19:14;4.70;;;3.45;;
8819;SDS011;4446;50.876;4.736;2022-07-22T13:21:41;4.72;;;3.50;;
8819;SDS011;4446;50.876;4.736;2022-07-22T13:24:09;3.97;;;3.55;;
8819;SDS011;4446;50.876;4.736;2022-07-22T13:26:38;3.60;;;3.30;;
8819;SDS011;4446;50.876;4.736;2022-07-22T13:29:05;3.42;;;3.13;;
8819;SDS011;4446;50.876;4.736;2022-07-22T13:31:32;3.40;;;2.88;;
8819;SDS011;4446;50.876;4.736;2022-07-22T13:33:59;3.92;;;3.53;;
8819;SDS011;4446;50.876;4.736;2022-07-22T13:36:26;4.70;;;3.30;;
8819;SDS011;4446;50.876;4.736;2022-07-22T13:38:57;6.10;;;3.10;;
8819;SDS011;4446;50.876;4.736;2022-07-22T13:41:24;3.38;;;3.08;;
8819;SDS011;4446;50.876;4.736;2022-07-22T13:43:53;5.15;;;3.10;;
8819;SDS011;4446;50.876;4.736;2022-07-22T13:46:20;3.17;;;2.90;;
8819;SDS011;4446;50.876;4.736;2022-07-22T13:48:47;3.63;;;3.30;;
8819;SDS011;4446;50.876;4.736;2022-07-22T13:51:14;4.30;;;3.22;;
8819;SDS011;4446;50.876;4.736;2022-07-22T13:53:41;3.30;;;3.00;;
8819;SDS011;4446;50.876;4.736;2022-07-22T13:56:08;3.55;;;2.80;;
8819;SDS011;4446;50.876;4.736;2022-07-22T13:58:37;3.20;;;2.90;;
8819;SDS011;4446;50.876;4.736;2022-07-22T14:01:07;3.20;;;2.90;;
8819;SDS011;4446;50.876;4.736;2022-07-22T14:03:35;4.95;;;3.30;;
8819;SDS011;4446;50.876;4.736;2022-07-22T14:06:02;3.47;;;2.90;;
8819;SDS011;4446;50.876;4.736;2022-07-22T14:08:30;5.25;;;3.42;;
8819;SDS011;4446;50.876;4.736;2022-07-22T14:10:57;3.58;;;3.05;;
8819;SDS011;4446;50.876;4.736;2022-07-22T14:13:24;3.28;;;2.97;;
8819;SDS011;4446;50.876;4.736;2022-07-22T14:15:51;4.78;;;3.08;;
8819;SDS011;4446;50.876;4.736;2022-07-22T14:18:20;4.03;;;3.38;;
8819;SDS011;4446;50.876;4.736;2022-07-22T14:20:47;3.53;;;3.22;;
8819;SDS011;4446;50.876;4.736;2022-07-22T14:23:14;4.00;;;3.45;;
8819;SDS011;4446;50.876;4.736;2022-07-22T14:25:45;4.03;;;3.50;;
8819;SDS011;4446;50.876;4.736;2022-07-22T14:28:12;3.53;;;3.20;;
8819;SDS011;4446;50.876;4.736;2022-07-22T14:30:39;3.80;;;3.50;;
8819;SDS011;4446;50.876;4.736;2022-07-22T14:33:06;4.13;;;3.70;;
8819;SDS011;4446;50.876;4.736;2022-07-22T14:35:37;4.63;;;3.13;;
8819;SDS011;4446;50.876;4.736;2022-07-22T14:38:04;3.75;;;3.00;;
8819;SDS011;4446;50.876;4.736;2022-07-22T14:40:31;4.78;;;3.25;;
8819;SDS011;4446;50.876;4.736;2022-07-22T14:42:58;3.85;;;3.33;;
8819;SDS011;4446;50.876;4.736;2022-07-22T14:45:25;4.38;;;3.30;;
8819;SDS011;4446;50.876;4.736;2022-07-22T14:47:52;4.85;;;3.60;;
8819;SDS011;4446;50.876;4.736;2022-07-22T14:50:19;4.15;;;3.17;;
8819;SDS011;4446;50.876;4.736;2022-07-22T14:52:48;3.55;;;3.15;;
8819;SDS011;4446;50.876;4.736;2022-07-22T14:55:15;4.30;;;3.38;;
8819;SDS011;4446;50.876;4.736;2022-07-22T14:57:42;4.20;;;3.35;;
8819;SDS011;4446;50.876;4.736;2022-07-22T15:00:09;4.80;;;3.45;;
8819;SDS011;4446;50.876;4.736;2022-07-22T15:02:37;3.70;;;3.38;;
8819;SDS011;4446;50.876;4.736;2022-07-22T15:05:04;4.90;;;3.47;;
8819;SDS011;4446;50.876;4.736;2022-07-22T15:07:31;4.95;;;3.55;;
8819;SDS011;4446;50.876;4.736;2022-07-22T15:10:00;4.13;;;3.50;;
8819;SDS011;4446;50.876;4.736;2022-07-22T15:12:27;3.92;;;3.53;;
8819;SDS011;4446;50.876;4.736;2022-07-22T15:14:54;5.05;;;3.30;;
8819;SDS011;4446;50.876;4.736;2022-07-22T15:17:21;3.78;;;3.33;;
8819;SDS011;4446;50.876;4.736;2022-07-22T15:19:48;4.85;;;3.40;;
8819;SDS011;4446;50.876;4.736;2022-07-22T15:22:15;4.15;;;3.75;;
8819;SDS011;4446;50.876;4.736;2022-07-22T15:24:42;5.88;;;3.67;;